Time;durP1;ratioP1;P1;durP2;ratioP2;P2;SDS_P1;SDS_P2;PMS_P1;PMS_P2;Temp;Humidity;BMP_temperature;BMP_pressure;BME280_temperature;BME280_humidity;BME280_pressure;Samples;Min_cycle;Max_cycle;Signal;HPM_P1;HPM_P2
2022/06/04 00:00:40;;;;;;;1.92;1.27;;;16.50;98.10;;;;;;5012014;28;20179;-88
2022/06/04 00:03:07;;;;;;;3.25;1.67;;;16.40;97.90;;;;;;5006371;28;20529;-88
2022/06/04 00:05:36;;;;;;;3.63;1.52;;;16.40;98.10;;;;;;5013353;28;20181;-89
2022/06/04 00:08:03;;;;;;;2.80;1.50;;;16.30;98.40;;;;;;5012887;28;20574;-88
2022/06/04 00:16:25;;;;;;;2.00;1.20;;;16.30;98.20;;;;;;5006894;28;20221;-87
2022/06/04 00:18:51;;;;;;;2.10;1.30;;;16.30;98.30;;;;;;5032738;28;20265;-88
2022/06/04 00:21:17;;;;;;;1.75;1.30;;;16.30;98.40;;;;;;5016852;28;20218;-87
2022/06/04 00:23:43;;;;;;;4.30;1.50;;;16.30;98.30;;;;;;5017041;28;20516;-86
2022/06/04 00:26:10;;;;;;;3.50;1.60;;;16.30;98.50;;;;;;5016587;28;20222;-87
2022/06/04 00:28:37;;;;;;;2.50;1.35;;;16.10;98.60;;;;;;5016467;28;20656;-87
2022/06/04 00:31:04;;;;;;;7.90;1.38;;;16.10;99.00;;;;;;5017749;28;20179;-86
2022/06/04 00:33:31;;;;;;;2.88;1.50;;;16.00;99.00;;;;;;5016359;28;20341;-88
2022/06/04 00:36:10;;;;;;;1.45;1.10;;;16.10;99.20;;;;;;5016329;28;20637;-87
2022/06/04 00:38:36;;;;;;;2.80;1.55;;;16.00;99.40;;;;;;5016449;28;20175;-86
2022/06/04 00:41:50;;;;;;;6.35;1.70;;;16.00;99.30;;;;;;5016012;28;20187;-88
2022/06/04 00:44:17;;;;;;;3.05;1.42;;;16.00;99.40;;;;;;4995926;28;20270;-87
2022/06/04 00:47:28;;;;;;;2.85;1.38;;;15.90;99.50;;;;;;5009892;28;20279;-88
2022/06/04 00:49:54;;;;;;;2.85;1.50;;;15.90;99.70;;;;;;4941166;29;20224;-88
2022/06/04 00:52:21;;;;;;;4.40;1.60;;;15.90;99.90;;;;;;5004706;28;20210;-86
2022/06/04 00:54:51;;;;;;;3.33;1.50;;;15.80;99.80;;;;;;5016335;28;20261;-87
2022/06/04 00:57:54;;;;;;;2.85;1.38;;;15.70;99.70;;;;;;5015810;28;20641;-88
2022/06/04 01:00:55;;;;;;;1.73;1.58;;;15.70;99.90;;;;;;5016608;28;20199;-88
2022/06/04 01:03:27;;;;;;;4.97;1.65;;;15.70;99.90;;;;;;4996631;28;20190;-89
2022/06/04 01:06:31;;;;;;;5.22;2.00;;;15.60;99.90;;;;;;5013235;28;20164;-88
2022/06/04 01:09:33;;;;;;;3.25;1.80;;;15.60;99.90;;;;;;5015678;28;20214;-89
2022/06/04 01:12:15;;;;;;;3.53;1.70;;;15.50;99.90;;;;;;5017073;28;20244;-89
2022/06/04 01:15:12;;;;;;;3.28;1.63;;;15.40;99.90;;;;;;5016038;28;20234;-88
2022/06/04 01:18:11;;;;;;;4.95;1.67;;;15.40;99.90;;;;;;5015218;28;20270;-89
2022/06/04 01:21:01;;;;;;;2.20;1.60;;;15.40;99.90;;;;;;5017199;28;20178;-89
2022/06/04 01:23:42;;;;;;;2.28;1.90;;;15.30;99.90;;;;;;5015461;28;20523;-87
2022/06/04 01:26:40;;;;;;;3.47;1.70;;;15.30;99.90;;;;;;5015418;28;20526;-88
2022/06/04 01:29:18;;;;;;;2.63;1.50;;;15.30;99.90;;;;;;5016954;28;20652;-89
2022/06/04 01:31:50;;;;;;;4.50;1.90;;;15.30;99.90;;;;;;5015926;28;20187;-89
2022/06/04 01:34:21;;;;;;;2.28;1.92;;;15.20;99.90;;;;;;5015609;28;20226;-88
2022/06/04 01:37:13;;;;;;;3.63;1.88;;;15.20;99.90;;;;;;5016391;28;20183;-89
2022/06/04 01:42:31;;;;;;;3.60;2.45;;;15.20;99.90;;;;;;5016913;28;20178;-88
2022/06/04 01:45:00;;;;;;;3.67;2.30;;;15.20;99.90;;;;;;5014382;28;20508;-87
2022/06/04 01:47:28;;;;;;;3.55;2.95;;;15.10;99.90;;;;;;5015666;28;20188;-87
2022/06/04 01:49:56;;;;;;;3.78;2.35;;;15.10;99.90;;;;;;5015412;28;20613;-88
2022/06/04 01:52:26;;;;;;;4.60;2.47;;;15.10;99.90;;;;;;5009346;28;20188;-88
2022/06/04 01:54:57;;;;;;;3.67;2.30;;;15.00;99.90;;;;;;5011823;28;20237;-88
2022/06/04 01:57:28;;;;;;;4.05;2.58;;;14.90;99.90;;;;;;5015528;28;20172;-87
2022/06/04 02:00:05;;;;;;;3.05;2.45;;;14.90;99.90;;;;;;5013617;28;20187;-86
2022/06/04 02:02:37;;;;;;;3.95;2.55;;;14.80;99.90;;;;;;5029750;28;20179;-88
2022/06/04 02:05:08;;;;;;;3.85;2.58;;;14.70;99.90;;;;;;5013741;28;20214;-88
2022/06/04 02:07:40;;;;;;;4.03;2.28;;;14.70;99.90;;;;;;5014206;28;20183;-87
2022/06/04 02:10:21;;;;;;;2.97;2.65;;;14.60;99.90;;;;;;5015754;28;20190;-88
2022/06/04 02:12:50;;;;;;;5.38;2.50;;;14.60;99.90;;;;;;5014171;28;20183;-87
2022/06/04 02:15:20;;;;;;;6.93;2.55;;;14.60;99.90;;;;;;5013948;28;20657;-89
2022/06/04 02:17:50;;;;;;;4.47;2.45;;;14.60;99.90;;;;;;5014633;28;20187;-86
2022/06/04 02:20:16;;;;;;;4.28;2.65;;;14.60;99.90;;;;;;5000274;28;20179;-87
2022/06/04 02:22:42;;;;;;;4.00;2.20;;;14.60;99.90;;;;;;5014493;28;20237;-88
2022/06/04 02:25:11;;;;;;;3.40;2.55;;;14.60;99.90;;;;;;5013000;28;20179;-86
2022/06/04 02:27:52;;;;;;;3.58;2.20;;;14.70;99.90;;;;;;5015122;28;20202;-85
2022/06/04 02:30:18;;;;;;;4.05;2.10;;;14.70;99.90;;;;;;5013847;28;20205;-87
2022/06/04 02:33:11;;;;;;;4.63;2.53;;;14.70;99.90;;;;;;5014410;28;20190;-85
2022/06/04 02:35:43;;;;;;;4.43;2.28;;;14.70;99.90;;;;;;5015422;28;20222;-87
2022/06/04 02:38:40;;;;;;;3.67;2.60;;;14.60;99.90;;;;;;5013855;28;20221;-88
2022/06/04 02:41:21;;;;;;;4.20;2.35;;;14.60;99.90;;;;;;5014551;28;20183;-87
2022/06/04 02:44:16;;;;;;;6.03;2.40;;;14.50;99.90;;;;;;5012671;28;20187;-87
2022/06/04 02:46:54;;;;;;;2.47;2.13;;;14.50;99.90;;;;;;5013461;28;20183;-85
2022/06/04 02:49:38;;;;;;;2.83;2.00;;;14.50;99.90;;;;;;5015979;28;20191;-86
2022/06/04 02:52:09;;;;;;;3.38;2.25;;;14.60;99.90;;;;;;5014758;28;20210;-86
2022/06/04 02:54:58;;;;;;;3.28;1.67;;;14.50;99.90;;;;;;5013111;28;20234;-87
2022/06/04 02:57:29;;;;;;;2.78;2.20;;;14.60;99.90;;;;;;5000991;28;20181;-87
2022/06/04 02:59:55;;;;;;;5.10;2.28;;;14.60;99.90;;;;;;5013617;28;20199;-87
2022/06/04 03:02:23;;;;;;;4.90;2.28;;;14.50;99.90;;;;;;5013378;28;20194;-87
2022/06/04 03:04:52;;;;;;;3.33;2.40;;;14.50;99.90;;;;;;5013102;28;20532;-86
2022/06/04 03:07:21;;;;;;;2.45;2.10;;;14.40;99.90;;;;;;5014748;28;20226;-86
2022/06/04 03:09:49;;;;;;;2.40;2.20;;;14.50;99.90;;;;;;5013552;28;20187;-87
2022/06/04 03:12:15;;;;;;;2.75;2.22;;;14.40;99.90;;;;;;5013362;28;20187;-87
2022/06/04 03:14:41;;;;;;;5.00;2.50;;;14.40;99.90;;;;;;5014351;28;20302;-86
2022/06/04 03:17:20;;;;;;;3.05;2.28;;;14.40;99.90;;;;;;5010391;28;20180;-86
2022/06/04 03:19:45;;;;;;;3.28;2.38;;;14.30;99.90;;;;;;5004049;28;20187;-87
2022/06/04 03:22:11;;;;;;;3.28;2.05;;;14.40;99.90;;;;;;5013045;28;20202;-85
2022/06/04 03:24:37;;;;;;;3.75;2.72;;;14.30;99.90;;;;;;5014341;28;20522;-87
2022/06/04 03:27:03;;;;;;;3.58;2.20;;;14.30;99.90;;;;;;5012902;28;20737;-85
2022/06/04 03:29:28;;;;;;;4.45;2.53;;;14.30;99.90;;;;;;5013528;28;20179;-86
2022/06/04 03:31:54;;;;;;;3.72;2.05;;;14.20;99.90;;;;;;5014658;28;20187;-87
2022/06/04 03:34:19;;;;;;;3.95;2.20;;;14.20;99.90;;;;;;5014391;28;20226;-86
2022/06/04 03:36:45;;;;;;;3.33;2.25;;;14.10;99.90;;;;;;5013558;28;20211;-86
2022/06/04 03:39:12;;;;;;;3.42;2.22;;;14.10;99.90;;;;;;5009587;28;20270;-87
2022/06/04 03:41:38;;;;;;;3.45;1.98;;;14.10;99.90;;;;;;4995002;28;20172;-87
2022/06/04 03:44:05;;;;;;;2.53;2.08;;;14.10;99.90;;;;;;5012987;28;20278;-87
2022/06/04 03:46:30;;;;;;;2.80;1.70;;;14.10;99.90;;;;;;5014601;28;20182;-85
2022/06/04 03:49:08;;;;;;;3.45;2.00;;;14.00;99.90;;;;;;5013368;28;20191;-86
2022/06/04 03:51:34;;;;;;;2.53;1.98;;;14.00;99.90;;;;;;5014145;28;20624;-87
2022/06/04 03:54:00;;;;;;;4.93;1.95;;;14.00;99.90;;;;;;5012064;28;20226;-85
2022/06/04 03:56:26;;;;;;;2.92;1.80;;;14.00;99.90;;;;;;5018659;28;20317;-86
2022/06/04 03:58:54;;;;;;;4.20;1.88;;;14.00;99.90;;;;;;5017752;28;20357;-86
2022/06/04 04:01:23;;;;;;;4.45;2.10;;;14.00;99.90;;;;;;5016652;28;20187;-85
2022/06/04 04:03:49;;;;;;;2.28;2.08;;;14.00;99.90;;;;;;5016555;28;20188;-87
2022/06/04 04:06:22;;;;;;;2.35;1.92;;;14.00;99.80;;;;;;5018131;28;20187;-87
2022/06/04 04:08:55;;;;;;;2.72;2.30;;;14.00;99.80;;;;;;5017753;28;20187;-87
2022/06/04 04:11:24;;;;;;;3.28;2.17;;;14.00;99.70;;;;;;5017735;28;20183;-85
2022/06/04 04:13:51;;;;;;;4.57;2.10;;;14.00;99.80;;;;;;5017737;28;20262;-87
2022/06/04 04:16:18;;;;;;;2.85;2.30;;;13.90;99.70;;;;;;5009939;28;20522;-88
2022/06/04 04:18:44;;;;;;;2.45;2.20;;;14.00;99.90;;;;;;5016474;28;20189;-86
2022/06/04 04:21:21;;;;;;;2.70;2.20;;;13.90;99.90;;;;;;5017910;28;20187;-87
2022/06/04 04:23:47;;;;;;;4.35;2.65;;;13.90;99.90;;;;;;5015773;28;20266;-86
2022/06/04 04:26:14;;;;;;;4.00;2.30;;;13.90;99.90;;;;;;5009382;28;20226;-86
2022/06/04 04:28:42;;;;;;;4.05;2.47;;;14.00;99.90;;;;;;5032742;28;20183;-86
2022/06/04 04:31:14;;;;;;;4.68;2.45;;;14.00;99.90;;;;;;5013039;28;20187;-86
2022/06/04 04:33:40;;;;;;;2.90;2.22;;;14.10;99.90;;;;;;5028931;28;20237;-87
2022/06/04 04:36:07;;;;;;;2.60;2.10;;;14.10;99.90;;;;;;5009141;28;20183;-87
2022/06/04 04:38:40;;;;;;;3.90;2.08;;;14.20;99.90;;;;;;5017034;28;20618;-87
2022/06/04 04:41:14;;;;;;;2.17;1.98;;;14.30;99.40;;;;;;5014925;28;20191;-86
2022/06/04 04:43:41;;;;;;;3.95;2.10;;;14.40;99.90;;;;;;5000904;28;20202;-87
2022/06/04 04:46:09;;;;;;;2.75;2.00;;;14.60;99.60;;;;;;5016727;28;20183;-86
2022/06/04 04:48:46;;;;;;;1.90;1.58;;;14.60;99.80;;;;;;5017267;28;20627;-87
2022/06/04 04:51:15;;;;;;;3.03;1.67;;;14.70;99.30;;;;;;5008681;28;20213;-87
2022/06/04 04:53:41;;;;;;;2.25;1.90;;;14.80;99.10;;;;;;5016524;28;20210;-86
2022/06/04 04:56:07;;;;;;;2.25;1.60;;;14.90;98.40;;;;;;5015701;28;20532;-85
2022/06/04 04:58:34;;;;;;;3.33;1.98;;;15.00;97.60;;;;;;5010410;28;20175;-86
2022/06/04 05:00:59;;;;;;;3.67;1.67;;;15.00;97.70;;;;;;5006486;28;20283;-86
2022/06/04 05:03:25;;;;;;;1.83;1.67;;;15.00;97.30;;;;;;5015007;28;20211;-85
2022/06/04 05:06:02;;;;;;;2.33;1.70;;;15.00;97.80;;;;;;5001855;28;20713;-86
2022/06/04 05:08:42;;;;;;;2.42;1.88;;;15.00;97.00;;;;;;5015841;28;20183;-86
2022/06/04 05:11:17;;;;;;;1.40;1.30;;;15.10;97.60;;;;;;5004455;28;20705;-87
2022/06/04 05:13:43;;;;;;;2.40;1.33;;;15.10;97.30;;;;;;4999907;28;20242;-86
2022/06/04 05:16:10;;;;;;;1.90;1.38;;;15.20;96.80;;;;;;4999446;28;20179;-87
2022/06/04 05:18:37;;;;;;;1.88;1.10;;;15.20;97.10;;;;;;5015643;28;20179;-86
2022/06/04 05:21:11;;;;;;;1.65;1.13;;;15.30;96.60;;;;;;5011960;28;20187;-86
2022/06/04 05:23:37;;;;;;;1.70;1.13;;;15.30;96.90;;;;;;5015241;28;20191;-88
2022/06/04 05:26:03;;;;;;;1.38;0.95;;;15.30;97.30;;;;;;5014441;28;20701;-88
2022/06/04 05:28:37;;;;;;;2.65;1.15;;;15.40;96.30;;;;;;5016518;28;20262;-88
2022/06/04 05:31:03;;;;;;;2.17;0.98;;;15.40;97.40;;;;;;5016397;28;20648;-89
2022/06/04 05:33:29;;;;;;;2.88;1.10;;;15.40;96.70;;;;;;5016591;28;20592;-86
2022/06/04 05:35:58;;;;;;;2.13;1.00;;;15.40;96.40;;;;;;5015027;28;20191;-89
2022/06/04 05:38:24;;;;;;;2.63;0.85;;;15.40;95.80;;;;;;4996696;28;20262;-90
2022/06/04 05:41:01;;;;;;;2.10;1.20;;;15.50;96.30;;;;;;5015599;28;20292;-88
2022/06/04 05:43:29;;;;;;;2.55;1.05;;;15.60;95.60;;;;;;5015087;28;20688;-86
2022/06/04 05:45:59;;;;;;;0.80;0.80;;;15.70;94.40;;;;;;5015665;28;20194;-88
2022/06/04 05:48:25;;;;;;;2.45;1.10;;;15.80;94.90;;;;;;5004037;28;20214;-88
2022/06/04 05:50:58;;;;;;;1.63;1.40;;;15.80;95.30;;;;;;5011971;28;20216;-88
2022/06/04 05:53:25;;;;;;;1.65;1.00;;;15.80;94.10;;;;;;5022699;28;20206;-89
2022/06/04 05:55:51;;;;;;;3.25;1.20;;;15.90;93.40;;;;;;5013689;28;20231;-88
2022/06/04 05:58:17;;;;;;;1.75;1.00;;;15.90;93.90;;;;;;5014384;28;20183;-89
2022/06/04 06:00:44;;;;;;;1.58;1.10;;;15.90;93.60;;;;;;5016001;28;20266;-89
2022/06/04 06:03:10;;;;;;;4.78;1.20;;;16.00;93.20;;;;;;5014518;28;20225;-88
2022/06/04 06:05:44;;;;;;;1.38;1.00;;;16.00;93.20;;;;;;5016203;28;20179;-87
2022/06/04 06:08:12;;;;;;;3.28;1.13;;;16.10;93.50;;;;;;5015676;28;20618;-86
2022/06/04 06:10:45;;;;;;;2.67;0.95;;;16.20;94.00;;;;;;5016194;28;20180;-88
2022/06/04 06:13:11;;;;;;;1.25;1.15;;;16.20;94.20;;;;;;5014503;28;20198;-88
2022/06/04 06:15:38;;;;;;;1.58;1.02;;;16.30;93.50;;;;;;5014231;28;20184;-87
2022/06/04 06:18:05;;;;;;;1.95;0.90;;;16.40;93.80;;;;;;5015690;28;20203;-87
2022/06/04 06:20:32;;;;;;;1.20;1.10;;;16.50;93.50;;;;;;5016085;28;20210;-86
2022/06/04 06:22:58;;;;;;;3.60;1.10;;;16.60;93.20;;;;;;5012220;28;20187;-86
2022/06/04 06:25:25;;;;;;;2.60;1.15;;;16.70;93.20;;;;;;5009852;28;20190;-87
2022/06/04 06:27:50;;;;;;;2.10;1.30;;;16.70;92.30;;;;;;5014904;28;20179;-87
2022/06/04 06:30:32;;;;;;;1.25;0.80;;;16.70;92.70;;;;;;5014838;28;20259;-88
2022/06/04 06:32:58;;;;;;;2.03;1.20;;;16.80;93.30;;;;;;5005883;28;20619;-88
2022/06/04 06:35:24;;;;;;;2.05;1.00;;;16.80;92.90;;;;;;5008798;28;20211;-88
2022/06/04 06:37:50;;;;;;;2.30;1.17;;;16.90;93.40;;;;;;5008412;28;20187;-88
2022/06/04 06:40:15;;;;;;;1.02;0.90;;;16.90;94.10;;;;;;4997528;28;20178;-90
2022/06/04 06:42:41;;;;;;;1.55;1.02;;;17.00;91.80;;;;;;5004563;28;20191;-87
2022/06/04 06:45:08;;;;;;;1.48;1.00;;;17.00;92.10;;;;;;5013558;28;20175;-87
2022/06/04 06:47:35;;;;;;;2.05;1.05;;;17.00;91.70;;;;;;5019034;28;20577;-87
2022/06/04 06:50:03;;;;;;;2.25;0.80;;;17.00;91.80;;;;;;5014545;28;20270;-87
2022/06/04 06:52:29;;;;;;;1.52;0.90;;;17.10;90.90;;;;;;5014419;28;20183;-88
2022/06/04 06:54:54;;;;;;;2.55;1.00;;;17.20;92.30;;;;;;5014963;28;20242;-87
2022/06/04 06:57:20;;;;;;;1.27;0.90;;;17.20;92.20;;;;;;5014972;28;20187;-88
2022/06/04 06:59:49;;;;;;;2.08;0.90;;;17.30;90.70;;;;;;5014354;28;20183;-88
2022/06/04 07:02:15;;;;;;;0.70;0.70;;;17.40;92.00;;;;;;5002162;28;20171;-88
2022/06/04 07:04:41;;;;;;;0.80;0.70;;;17.40;92.50;;;;;;5015318;28;20224;-86
2022/06/04 07:07:06;;;;;;;1.08;0.80;;;17.40;91.60;;;;;;5014765;28;20215;-88
2022/06/04 07:09:36;;;;;;;2.38;0.80;;;17.40;90.20;;;;;;5014220;28;20222;-87
2022/06/04 07:12:03;;;;;;;0.70;0.60;;;17.60;90.60;;;;;;5015061;28;20186;-87
2022/06/04 07:14:30;;;;;;;2.40;0.80;;;17.80;90.40;;;;;;5015215;28;20210;-87
2022/06/04 07:16:59;;;;;;;0.75;0.50;;;17.90;90.40;;;;;;5012146;28;20199;-87
2022/06/04 07:19:26;;;;;;;4.47;0.85;;;17.90;88.00;;;;;;5013204;28;20610;-85
2022/06/04 07:21:55;;;;;;;1.02;0.40;;;17.90;88.00;;;;;;5013661;28;20190;-89
2022/06/04 07:24:21;;;;;;;1.25;0.80;;;18.10;90.10;;;;;;5011138;28;20183;-95
2022/06/04 07:26:47;;;;;;;0.70;0.60;;;18.40;90.00;;;;;;5017204;28;20510;-88
2022/06/04 07:29:13;;;;;;;0.60;0.60;;;18.50;89.60;;;;;;5003747;28;20187;-90
2022/06/04 07:31:44;;;;;;;0.60;0.60;;;18.70;86.00;;;;;;4999629;28;20218;-87
2022/06/04 07:34:10;;;;;;;1.05;0.70;;;18.90;87.40;;;;;;5006281;28;20203;-92
2022/06/04 07:36:40;;;;;;;1.30;0.90;;;18.90;85.10;;;;;;5018939;28;20966;-89
2022/06/04 07:39:08;;;;;;;0.60;0.60;;;19.00;87.00;;;;;;5019231;28;20179;-95
2022/06/04 07:41:45;;;;;;;0.90;0.50;;;19.20;85.70;;;;;;5017881;28;20221;-89
2022/06/04 07:44:13;;;;;;;1.05;0.50;;;19.20;84.50;;;;;;5018771;28;20233;-89
2022/06/04 07:46:41;;;;;;;1.02;0.80;;;19.20;85.40;;;;;;5018925;28;20563;-89
2022/06/04 07:49:09;;;;;;;2.28;0.85;;;19.40;86.70;;;;;;5017768;28;20186;-90
2022/06/04 07:51:36;;;;;;;0.70;0.68;;;19.50;86.60;;;;;;5017923;28;20185;-90
2022/06/04 07:54:03;;;;;;;2.00;0.57;;;19.60;84.20;;;;;;5016807;28;20239;-86
2022/06/04 07:56:28;;;;;;;0.70;0.65;;;19.70;85.90;;;;;;5019341;28;20190;-96
2022/06/04 07:58:54;;;;;;;1.17;0.68;;;20.00;87.60;;;;;;5024964;28;20187;-89
2022/06/04 08:01:23;;;;;;;0.90;0.60;;;20.20;84.80;;;;;;5015811;28;20191;-86
2022/06/04 08:03:50;;;;;;;1.25;0.60;;;20.00;86.80;;;;;;5012834;28;20168;-88
2022/06/04 08:06:17;;;;;;;3.30;0.70;;;20.00;84.00;;;;;;5016481;28;20210;-87
2022/06/04 08:08:50;;;;;;;1.90;0.90;;;20.20;83.70;;;;;;5017032;28;20186;-88
2022/06/04 08:11:31;;;;;;;1.02;0.70;;;20.20;84.00;;;;;;5017294;28;20186;-88
2022/06/04 08:14:03;;;;;;;0.95;0.60;;;20.30;85.60;;;;;;5017314;28;20273;-89
2022/06/04 08:16:29;;;;;;;2.88;0.82;;;20.50;85.90;;;;;;5017323;28;20176;-85
2022/06/04 08:18:54;;;;;;;2.28;0.65;;;20.40;84.60;;;;;;5016910;28;20194;-88
2022/06/04 08:21:25;;;;;;;1.63;0.70;;;20.40;84.30;;;;;;4999716;28;20195;-88
2022/06/04 08:23:51;;;;;;;1.50;0.90;;;20.50;84.60;;;;;;4998593;28;20607;-90
2022/06/04 08:26:17;;;;;;;2.30;0.88;;;20.50;83.80;;;;;;4997383;28;20182;-92
2022/06/04 08:28:43;;;;;;;1.65;0.80;;;20.50;85.60;;;;;;4997503;28;20274;-90
2022/06/04 08:31:18;;;;;;;1.90;0.90;;;20.70;86.20;;;;;;4997613;28;20184;-92
2022/06/04 08:33:45;;;;;;;1.50;0.95;;;20.90;84.80;;;;;;4997300;28;20203;-92
2022/06/04 08:36:13;;;;;;;2.75;1.10;;;21.00;85.40;;;;;;5004724;28;20183;-89
2022/06/04 08:38:39;;;;;;;3.17;0.85;;;21.10;86.50;;;;;;5011317;28;20179;-88
2022/06/04 08:41:48;;;;;;;1.90;1.08;;;21.20;87.10;;;;;;5016989;28;20594;-88
2022/06/04 08:44:27;;;;;;;1.10;0.70;;;21.30;87.40;;;;;;5010769;28;20198;-89
2022/06/04 08:47:00;;;;;;;2.75;1.33;;;21.30;85.50;;;;;;4997077;28;20208;-88
2022/06/04 08:49:37;;;;;;;4.18;1.00;;;21.40;84.10;;;;;;5007310;28;20184;-88
2022/06/04 08:52:27;;;;;;;3.28;0.98;;;21.30;85.60;;;;;;5017211;28;20236;-92
2022/06/04 08:58:01;;;;;;;1.42;1.00;;;21.70;85.80;;;;;;5012480;28;20215;-89
2022/06/04 09:00:32;;;;;;;1.73;1.10;;;21.80;85.50;;;;;;5016583;28;20218;-89
2022/06/04 09:03:10;;;;;;;1.70;1.20;;;22.10;85.30;;;;;;5017559;28;20175;-92
2022/06/04 09:06:09;;;;;;;1.92;1.10;;;22.00;84.60;;;;;;5010981;28;20190;-88
2022/06/04 09:08:47;;;;;;;1.92;0.88;;;22.00;84.60;;;;;;5011406;28;20195;-88
2022/06/04 09:11:41;;;;;;;1.20;1.00;;;22.10;84.50;;;;;;5017110;28;20179;-86
2022/06/04 09:14:36;;;;;;;1.63;1.00;;;22.20;83.80;;;;;;5003395;28;20266;-90
2022/06/04 09:17:15;;;;;;;1.83;1.20;;;22.10;85.80;;;;;;5006290;28;20203;-87
2022/06/04 09:19:46;;;;;;;7.38;1.38;;;21.90;83.80;;;;;;5004161;28;20179;-86
2022/06/04 09:22:24;;;;;;;1.75;1.25;;;21.90;86.50;;;;;;5015982;28;20182;-89
2022/06/04 09:24:50;;;;;;;1.58;0.90;;;21.70;84.80;;;;;;4996705;28;20588;-92
2022/06/04 09:27:30;;;;;;;2.17;1.10;;;21.60;86.30;;;;;;5004835;28;20627;-91
2022/06/04 09:30:04;;;;;;;3.88;1.30;;;21.70;86.20;;;;;;5015225;28;20195;-92
2022/06/04 09:32:53;;;;;;;1.40;1.23;;;22.00;87.00;;;;;;5015752;28;20170;-93
2022/06/04 09:35:26;;;;;;;1.77;1.27;;;22.30;87.00;;;;;;5015387;28;20211;-91
2022/06/04 09:37:52;;;;;;;5.22;1.63;;;22.60;89.00;;;;;;5015933;28;20203;-90
2022/06/04 09:40:30;;;;;;;2.42;1.20;;;22.70;85.00;;;;;;5015255;28;20318;-88
2022/06/04 09:43:15;;;;;;;2.95;1.00;;;22.70;83.20;;;;;;5015601;28;20198;-89
2022/06/04 09:45:49;;;;;;;2.03;1.02;;;22.70;86.70;;;;;;5016669;28;20197;-89
2022/06/04 09:48:22;;;;;;;1.85;1.33;;;22.70;86.00;;;;;;5015147;28;20228;-88
2022/06/04 09:50:55;;;;;;;1.45;1.00;;;22.60;85.40;;;;;;5016484;28;20179;-88
2022/06/04 09:53:35;;;;;;;1.98;0.93;;;22.40;84.50;;;;;;5015624;28;20179;-92
2022/06/04 09:56:11;;;;;;;0.90;0.88;;;22.60;87.70;;;;;;5014867;28;20214;-92
2022/06/04 09:58:42;;;;;;;4.30;1.00;;;22.80;85.20;;;;;;5015243;28;20288;-88
2022/06/04 10:01:28;;;;;;;1.50;1.00;;;22.90;86.10;;;;;;5014584;28;20187;-94
2022/06/04 10:04:13;;;;;;;1.45;1.02;;;23.00;84.90;;;;;;5011503;28;20198;-90
2022/06/04 10:06:39;;;;;;;2.55;1.30;;;23.10;83.60;;;;;;5016938;28;20182;-90
2022/06/04 10:12:18;;;;;;;3.38;1.20;;;23.10;82.90;;;;;;5015826;28;20205;-88
2022/06/04 10:14:59;;;;;;;1.80;1.10;;;23.10;83.70;;;;;;5014758;28;20222;-88
2022/06/04 10:17:37;;;;;;;3.40;1.00;;;23.40;84.70;;;;;;5011906;28;20310;-89
2022/06/04 10:20:03;;;;;;;2.08;1.10;;;23.70;85.60;;;;;;5000719;28;20245;-90
2022/06/04 10:22:29;;;;;;;2.08;1.05;;;23.80;84.50;;;;;;5006499;28;20222;-89
2022/06/04 10:25:00;;;;;;;2.08;1.25;;;23.70;83.20;;;;;;5002398;28;20270;-89
2022/06/04 10:27:44;;;;;;;1.90;1.00;;;23.80;82.60;;;;;;5014300;28;20171;-90
2022/06/04 10:30:13;;;;;;;2.25;1.13;;;23.60;82.00;;;;;;5014084;28;20248;-88
2022/06/04 10:33:05;;;;;;;2.85;1.00;;;23.70;82.80;;;;;;5013746;28;20217;-91
2022/06/04 10:35:56;;;;;;;1.85;1.30;;;23.70;85.70;;;;;;5013658;28;20210;-91
2022/06/04 10:38:31;;;;;;;2.63;1.35;;;23.80;84.20;;;;;;4995177;28;20180;-89
2022/06/04 10:41:03;;;;;;;2.75;1.20;;;23.70;82.00;;;;;;5013255;28;20187;-89
2022/06/04 10:43:56;;;;;;;1.95;1.33;;;23.80;86.40;;;;;;5015735;28;20240;-88
2022/06/04 10:46:42;;;;;;;1.65;1.35;;;23.80;81.80;;;;;;4995857;28;20198;-89
2022/06/04 10:49:37;;;;;;;2.65;1.35;;;23.60;82.20;;;;;;4997797;28;20214;-88
2022/06/04 10:52:09;;;;;;;2.05;1.23;;;23.80;82.00;;;;;;5009672;28;20198;-87
2022/06/04 10:54:43;;;;;;;1.88;1.25;;;23.80;81.90;;;;;;5011902;28;20247;-88
2022/06/04 10:57:33;;;;;;;4.70;1.27;;;23.60;80.10;;;;;;5012705;28;20179;-88
2022/06/04 11:00:10;;;;;;;2.00;1.40;;;23.60;81.50;;;;;;5005616;28;20547;-89
2022/06/04 11:02:57;;;;;;;1.42;1.30;;;23.60;81.40;;;;;;5010683;28;20179;-89
2022/06/04 11:05:39;;;;;;;2.53;1.30;;;23.80;81.20;;;;;;5012385;28;20183;-87
2022/06/04 11:08:35;;;;;;;2.42;1.73;;;23.90;82.30;;;;;;5011269;28;20179;-84
2022/06/04 11:11:20;;;;;;;1.63;1.52;;;23.90;80.30;;;;;;5009830;28;20196;-88
2022/06/04 11:13:56;;;;;;;1.90;1.20;;;24.00;82.10;;;;;;4995470;28;20322;-90
2022/06/04 11:16:42;;;;;;;1.60;1.20;;;24.00;84.40;;;;;;5012099;28;20178;-89
2022/06/04 11:19:29;;;;;;;2.38;1.35;;;24.20;83.00;;;;;;5006458;28;20570;-89
2022/06/04 11:22:21;;;;;;;1.88;1.40;;;24.50;82.50;;;;;;5014243;28;20222;-89
2022/06/04 11:25:02;;;;;;;2.58;1.58;;;24.50;81.40;;;;;;5007827;28;20166;-89
2022/06/04 11:27:40;;;;;;;2.08;1.25;;;24.60;80.70;;;;;;5013681;28;20233;-90
2022/06/04 11:30:19;;;;;;;1.67;1.27;;;24.60;81.90;;;;;;5013267;28;20233;-89
2022/06/04 11:32:45;;;;;;;3.83;1.30;;;24.60;79.00;;;;;;5013005;28;20185;-89
2022/06/04 11:35:21;;;;;;;1.77;1.10;;;24.50;79.90;;;;;;5012438;28;20206;-88
2022/06/04 11:38:13;;;;;;;2.70;1.30;;;24.50;80.50;;;;;;5014806;28;20231;-87
2022/06/04 11:40:55;;;;;;;1.70;1.30;;;24.60;79.10;;;;;;5013403;28;20179;-88
2022/06/04 11:43:58;;;;;;;2.25;1.30;;;24.40;80.60;;;;;;5012630;28;20191;-91
2022/06/04 11:46:44;;;;;;;1.55;1.35;;;24.30;80.50;;;;;;5012900;28;20205;-89
2022/06/04 11:49:30;;;;;;;3.10;1.30;;;24.50;83.20;;;;;;5004690;28;20199;-90
2022/06/04 11:52:35;;;;;;;1.55;1.40;;;24.60;78.80;;;;;;5008912;28;20179;-89
2022/06/04 11:55:32;;;;;;;4.40;1.90;;;24.70;79.40;;;;;;4986098;28;20241;-87
2022/06/04 11:58:26;;;;;;;2.80;1.10;;;25.00;79.50;;;;;;5024867;28;20191;-88
2022/06/04 12:00:59;;;;;;;1.40;1.20;;;24.90;78.50;;;;;;4998890;28;20558;-90
2022/06/04 12:03:47;;;;;;;2.10;1.40;;;25.20;77.80;;;;;;5030014;28;20187;-89
2022/06/04 12:06:31;;;;;;;1.48;1.10;;;25.30;77.10;;;;;;5014327;28;20183;-88
2022/06/04 12:09:15;;;;;;;2.13;1.52;;;25.40;79.50;;;;;;5014826;28;20214;-91
2022/06/04 12:12:16;;;;;;;1.90;1.20;;;25.60;79.20;;;;;;5012125;28;20626;-87
2022/06/04 12:14:55;;;;;;;2.05;1.20;;;25.70;77.40;;;;;;5016140;28;20554;-88
2022/06/04 12:17:26;;;;;;;3.42;1.30;;;25.70;77.50;;;;;;5015990;28;20278;-88
2022/06/04 12:25:45;;;;;;;1.77;1.30;;;25.90;76.80;;;;;;5017200;28;20210;-92
2022/06/04 12:28:41;;;;;;;2.45;1.25;;;25.50;77.60;;;;;;5016128;28;20245;-87
2022/06/04 12:31:06;;;;;;;2.50;1.30;;;25.70;78.30;;;;;;5014828;28;20210;-89
2022/06/04 12:33:51;;;;;;;2.58;1.20;;;25.80;76.70;;;;;;5016522;28;20191;-88
2022/06/04 12:36:31;;;;;;;3.08;1.50;;;25.80;77.50;;;;;;5016331;28;20512;-92
2022/06/04 12:39:04;;;;;;;3.05;1.15;;;25.80;75.70;;;;;;5014945;28;20191;-88
2022/06/04 12:41:46;;;;;;;2.72;1.60;;;25.80;75.90;;;;;;5016345;28;20183;-90
2022/06/04 12:44:28;;;;;;;2.65;1.30;;;25.80;78.30;;;;;;5016960;28;20294;-89
2022/06/04 12:46:56;;;;;;;1.52;1.10;;;26.00;78.70;;;;;;5015996;28;20186;-89
2022/06/04 12:49:28;;;;;;;1.25;1.15;;;26.30;78.90;;;;;;5015823;28;20179;-89
2022/06/04 12:52:04;;;;;;;3.92;1.25;;;26.40;76.40;;;;;;5016144;28;20187;-88
2022/06/04 12:54:54;;;;;;;3.83;1.40;;;26.30;75.90;;;;;;5014528;28;20242;-88
2022/06/04 12:57:28;;;;;;;5.55;1.10;;;26.10;76.00;;;;;;4998077;28;20179;-89
2022/06/04 13:00:13;;;;;;;1.98;1.20;;;25.80;79.60;;;;;;4997801;28;20167;-88
2022/06/04 13:02:43;;;;;;;1.48;1.20;;;25.60;75.40;;;;;;5006694;28;20633;-87
2022/06/04 13:05:12;;;;;;;1.73;1.48;;;25.40;77.60;;;;;;5016038;28;20606;-86
2022/06/04 13:07:53;;;;;;;1.52;1.30;;;25.20;77.40;;;;;;5015450;28;20535;-88
2022/06/04 13:10:36;;;;;;;2.47;1.50;;;24.70;78.00;;;;;;5015559;28;20258;-87
2022/06/04 13:13:15;;;;;;;2.58;1.58;;;24.50;79.30;;;;;;5015898;28;20186;-88
2022/06/04 13:16:03;;;;;;;2.65;1.73;;;24.50;79.00;;;;;;5016315;28;20222;-86
2022/06/04 13:18:33;;;;;;;2.25;1.45;;;24.50;79.20;;;;;;5015023;28;20187;-89
2022/06/04 13:21:05;;;;;;;1.98;1.45;;;24.60;79.70;;;;;;5015858;28;20183;-88
2022/06/04 13:23:48;;;;;;;2.97;1.30;;;24.80;80.40;;;;;;5016996;28;20186;-89
2022/06/04 13:26:43;;;;;;;2.53;1.40;;;25.10;82.00;;;;;;5014098;28;20191;-90
2022/06/04 13:29:28;;;;;;;1.88;1.20;;;25.30;80.10;;;;;;5016209;28;20171;-90
2022/06/04 13:31:57;;;;;;;2.00;1.27;;;25.30;80.30;;;;;;5015292;28;20183;-90
2022/06/04 13:34:27;;;;;;;2.53;1.38;;;25.10;79.10;;;;;;5015451;28;20285;-90
2022/06/04 13:37:00;;;;;;;3.25;1.48;;;25.10;81.90;;;;;;5014518;28;20194;-89
2022/06/04 13:39:27;;;;;;;1.80;1.50;;;25.00;78.80;;;;;;5031839;28;20273;-89
2022/06/04 13:42:02;;;;;;;3.15;1.60;;;24.90;80.30;;;;;;5015599;28;20198;-89
2022/06/04 13:44:34;;;;;;;1.98;1.58;;;24.70;79.30;;;;;;5014004;28;20177;-89